Time;durP1;ratioP1;P1;durP2;ratioP2;P2;SDS_P1;SDS_P2;PMS_P1;PMS_P2;Temp;Humidity;BMP_temperature;BMP_pressure;BME280_temperature;BME280_humidity;BME280_pressure;Samples;Min_cycle;Max_cycle;Signal;HPM_P1;HPM_P2
2021/08/01 00:01:28;;;;;;;3.63;3.20;;;;;;;;;;5100353;28;20231;-63
2021/08/01 00:03:56;;;;;;;4.53;3.27;;;;;;;;;;5100080;28;20707;-63
2021/08/01 00:06:27;;;;;;;4.47;2.63;;;;;;;;;;5099825;28;20643;-63
2021/08/01 00:08:55;;;;;;;5.80;3.70;;;;;;;;;;5099443;28;20288;-63
2021/08/01 00:11:23;;;;;;;5.80;3.50;;;;;;;;;;5099357;28;20271;-63
2021/08/01 00:13:51;;;;;;;7.63;3.97;;;;;;;;;;5099365;28;20202;-63
2021/08/01 00:16:19;;;;;;;8.60;3.80;;;;;;;;;;5098218;28;20231;-63
2021/08/01 00:18:47;;;;;;;4.33;3.93;;;;;;;;;;5098779;28;20270;-63
2021/08/01 00:21:15;;;;;;;6.47;3.17;;;;;;;;;;5099057;28;20569;-63
2021/08/01 00:23:44;;;;;;;3.60;3.30;;;;;;;;;;5099251;28;20771;-63
2021/08/01 00:26:12;;;;;;;5.07;3.73;;;;;;;;;;5099570;28;20212;-63
2021/08/01 00:28:40;;;;;;;4.57;3.43;;;;;;;;;;5099991;28;20288;-63
2021/08/01 00:31:08;;;;;;;3.93;3.10;;;;;;;;;;5099433;28;20226;-63
2021/08/01 00:33:36;;;;;;;4.17;3.10;;;;;;;;;;5100096;28;20288;-63
2021/08/01 00:36:05;;;;;;;5.40;3.30;;;;;;;;;;5099751;28;20202;-63
2021/08/01 00:38:32;;;;;;;4.73;3.20;;;;;;;;;;5099768;28;20216;-63
2021/08/01 00:41:03;;;;;;;5.10;3.30;;;;;;;;;;5099298;28;20284;-63
2021/08/01 00:43:32;;;;;;;6.27;3.23;;;;;;;;;;5099326;28;20213;-63
2021/08/01 00:46:00;;;;;;;3.30;3.00;;;;;;;;;;5099348;28;20209;-63
2021/08/01 00:48:28;;;;;;;4.90;3.20;;;;;;;;;;5099257;28;20271;-63
2021/08/01 00:50:56;;;;;;;4.67;3.60;;;;;;;;;;5098549;28;20223;-63
2021/08/01 00:53:24;;;;;;;4.60;3.87;;;;;;;;;;5098506;28;20220;-63
2021/08/01 00:55:51;;;;;;;4.07;3.30;;;;;;;;;;5098682;28;20569;-63
2021/08/01 00:58:21;;;;;;;5.30;3.30;;;;;;;;;;5098911;28;20205;-63
2021/08/01 01:03:46;;;;;;;5.07;3.50;;;;;;;;;;5098274;28;20657;-63
2021/08/01 01:06:18;;;;;;;5.50;3.23;;;;;;;;;;5098657;28;20209;-63
2021/08/01 01:08:51;;;;;;;3.23;2.93;;;;;;;;;;5098430;28;20210;-63
2021/08/01 01:11:20;;;;;;;8.10;3.40;;;;;;;;;;5098551;28;20230;-63
2021/08/01 01:13:51;;;;;;;5.67;3.10;;;;;;;;;;5098668;28;20202;-63
2021/08/01 01:16:18;;;;;;;5.80;2.80;;;;;;;;;;5098173;28;20217;-63
2021/08/01 01:18:48;;;;;;;7.00;3.30;;;;;;;;;;5098256;28;20205;-63
2021/08/01 01:21:38;;;;;;;5.63;3.40;;;;;;;;;;5098518;28;20205;-63
2021/08/01 01:24:07;;;;;;;6.43;3.67;;;;;;;;;;5098594;28;20216;-63
2021/08/01 01:26:38;;;;;;;6.37;3.00;;;;;;;;;;5098809;28;20288;-63
2021/08/01 01:29:13;;;;;;;4.90;3.47;;;;;;;;;;5098643;28;20205;-63
2021/08/01 01:31:44;;;;;;;5.10;3.07;;;;;;;;;;5098315;28;20235;-63
2021/08/01 01:34:16;;;;;;;4.23;3.50;;;;;;;;;;5098470;28;20236;-63
2021/08/01 01:36:47;;;;;;;4.47;3.33;;;;;;;;;;5084975;28;20590;-63
2021/08/01 01:39:15;;;;;;;4.77;3.07;;;;;;;;;;5098277;28;20216;-63
2021/08/01 01:41:45;;;;;;;6.50;2.97;;;;;;;;;;5098387;28;20240;-63
2021/08/01 01:44:13;;;;;;;4.70;2.77;;;;;;;;;;5098661;28;20216;-63
2021/08/01 01:46:42;;;;;;;3.77;2.57;;;;;;;;;;5098989;28;20209;-63
2021/08/01 01:49:11;;;;;;;4.07;2.73;;;;;;;;;;5098826;28;20209;-63
2021/08/01 01:51:39;;;;;;;4.77;2.90;;;;;;;;;;5098787;28;20239;-63
2021/08/01 01:54:08;;;;;;;7.63;2.60;;;;;;;;;;5098486;28;20231;-63
2021/08/01 01:56:37;;;;;;;6.37;2.60;;;;;;;;;;5098591;28;20206;-63
2021/08/01 01:59:05;;;;;;;4.23;2.70;;;;;;;;;;5098755;28;20212;-63
2021/08/01 02:01:35;;;;;;;3.43;3.07;;;;;;;;;;5098586;28;20221;-63
2021/08/01 02:04:03;;;;;;;6.67;2.43;;;;;;;;;;5098908;28;20205;-63
2021/08/01 02:06:31;;;;;;;3.53;2.67;;;;;;;;;;5098311;28;20610;-63
2021/08/01 02:09:02;;;;;;;2.50;2.30;;;;;;;;;;5097856;28;20665;-63
2021/08/01 02:11:35;;;;;;;5.37;2.73;;;;;;;;;;5097724;28;20255;-63
2021/08/01 02:14:06;;;;;;;6.07;2.47;;;;;;;;;;5084617;28;20555;-63
2021/08/01 02:16:35;;;;;;;2.40;2.20;;;;;;;;;;5097954;28;20241;-63
2021/08/01 02:19:06;;;;;;;4.10;2.07;;;;;;;;;;5097809;28;20205;-63
2021/08/01 02:21:35;;;;;;;5.50;2.83;;;;;;;;;;5097688;28;20222;-63
2021/08/01 02:24:04;;;;;;;3.10;2.57;;;;;;;;;;5097242;28;20732;-63
2021/08/01 02:26:35;;;;;;;3.07;2.60;;;;;;;;;;5097363;28;20681;-63
2021/08/01 02:29:03;;;;;;;3.20;2.63;;;;;;;;;;5097524;28;20216;-63
2021/08/01 02:31:31;;;;;;;5.67;2.80;;;;;;;;;;5097244;28;20225;-63
2021/08/01 02:33:59;;;;;;;5.83;2.97;;;;;;;;;;5096939;28;20637;-63
2021/08/01 02:36:27;;;;;;;3.73;2.67;;;;;;;;;;5097143;28;20236;-63
2021/08/01 02:38:57;;;;;;;3.43;2.40;;;;;;;;;;5096833;28;20209;-63
2021/08/01 02:41:28;;;;;;;8.03;3.10;;;;;;;;;;5097458;28;20240;-63
2021/08/01 02:43:58;;;;;;;6.00;3.07;;;;;;;;;;5097915;28;20269;-63
2021/08/01 02:46:29;;;;;;;3.67;2.50;;;;;;;;;;5098269;28;20205;-62
2021/08/01 02:48:59;;;;;;;6.37;5.17;;;;;;;;;;5099151;28;20244;-63
2021/08/01 02:51:28;;;;;;;3.10;2.60;;;;;;;;;;5098782;28;20233;-62
2021/08/01 02:53:56;;;;;;;5.57;2.87;;;;;;;;;;5097861;28;20208;-62
2021/08/01 02:56:26;;;;;;;5.57;2.73;;;;;;;;;;5097899;28;20227;-62
2021/08/01 02:58:54;;;;;;;5.73;2.73;;;;;;;;;;5097964;28;20288;-61
2021/08/01 03:01:24;;;;;;;5.27;2.53;;;;;;;;;;5097881;28;20231;-62
2021/08/01 03:03:53;;;;;;;4.10;2.30;;;;;;;;;;5097930;28;20227;-62
2021/08/01 03:06:21;;;;;;;3.20;2.33;;;;;;;;;;5097902;28;20205;-62
2021/08/01 03:08:49;;;;;;;5.10;2.87;;;;;;;;;;5097575;28;20219;-64
2021/08/01 03:11:20;;;;;;;4.47;2.53;;;;;;;;;;5095468;28;20201;-64
2021/08/01 03:13:48;;;;;;;6.40;2.63;;;;;;;;;;5095841;28;20209;-64
2021/08/01 03:16:16;;;;;;;4.30;3.20;;;;;;;;;;5097524;28;20216;-65
2021/08/01 03:18:45;;;;;;;6.90;2.50;;;;;;;;;;5115327;28;20201;-64
2021/08/01 03:21:13;;;;;;;4.17;3.03;;;;;;;;;;5118048;28;20213;-64
2021/08/01 03:23:41;;;;;;;5.33;2.87;;;;;;;;;;5117470;28;20679;-64
2021/08/01 03:26:09;;;;;;;4.63;2.83;;;;;;;;;;5107548;28;20209;-64
2021/08/01 03:28:37;;;;;;;3.70;2.67;;;;;;;;;;5092352;28;20209;-64
2021/08/01 03:31:05;;;;;;;3.83;2.40;;;;;;;;;;5116234;28;20236;-64
2021/08/01 03:33:33;;;;;;;3.00;2.70;;;;;;;;;;5117268;28;20316;-64
2021/08/01 03:36:02;;;;;;;4.70;2.77;;;;;;;;;;5117685;28;20269;-64
2021/08/01 03:38:30;;;;;;;3.57;2.73;;;;;;;;;;5116847;28;20213;-64
2021/08/01 03:40:58;;;;;;;3.27;2.97;;;;;;;;;;5117149;28;20208;-64
2021/08/01 03:43:26;;;;;;;6.20;3.00;;;;;;;;;;5117159;28;20197;-64
2021/08/01 03:45:54;;;;;;;2.80;2.60;;;;;;;;;;5091125;28;20855;-64
2021/08/01 03:48:22;;;;;;;7.63;3.63;;;;;;;;;;5096701;28;20289;-64
2021/08/01 03:50:50;;;;;;;6.53;2.87;;;;;;;;;;5096437;28;20204;-64
2021/08/01 03:53:19;;;;;;;5.20;3.07;;;;;;;;;;5099569;28;20231;-64
2021/08/01 03:55:47;;;;;;;5.23;2.70;;;;;;;;;;5100266;28;20219;-64
2021/08/01 03:58:15;;;;;;;4.90;2.83;;;;;;;;;;5100766;28;20205;-64
2021/08/01 04:00:46;;;;;;;4.33;2.60;;;;;;;;;;5100799;28;20751;-64
2021/08/01 04:03:14;;;;;;;3.70;2.60;;;;;;;;;;5095816;28;20217;-64
2021/08/01 04:05:42;;;;;;;3.93;2.40;;;;;;;;;;5100937;28;20205;-64
2021/08/01 04:08:10;;;;;;;8.27;3.10;;;;;;;;;;5100767;28;20288;-64
2021/08/01 04:10:39;;;;;;;5.20;2.83;;;;;;;;;;5106106;28;20568;-64
2021/08/01 04:13:07;;;;;;;2.80;2.47;;;;;;;;;;5106653;28;20228;-64
2021/08/01 04:15:35;;;;;;;5.73;3.03;;;;;;;;;;5100620;28;20292;-64
2021/08/01 04:18:05;;;;;;;3.27;2.50;;;;;;;;;;5100637;28;20572;-64
2021/08/01 04:20:33;;;;;;;3.10;2.57;;;;;;;;;;5100875;28;20359;-64
2021/08/01 04:23:01;;;;;;;4.83;3.00;;;;;;;;;;5100440;28;20226;-64
2021/08/01 04:25:29;;;;;;;2.77;2.57;;;;;;;;;;5100545;28;20216;-64
2021/08/01 04:27:58;;;;;;;5.83;2.87;;;;;;;;;;5100500;28;20209;-64
2021/08/01 04:30:26;;;;;;;5.60;3.30;;;;;;;;;;5100162;28;20653;-64
2021/08/01 04:32:54;;;;;;;5.13;2.83;;;;;;;;;;5099620;28;20716;-64
2021/08/01 04:35:22;;;;;;;10.73;3.30;;;;;;;;;;5100108;28;20229;-64
2021/08/01 04:37:50;;;;;;;5.10;2.87;;;;;;;;;;5099739;28;20227;-64
2021/08/01 04:40:18;;;;;;;5.73;3.00;;;;;;;;;;5099274;28;20569;-64
2021/08/01 04:42:46;;;;;;;4.70;2.73;;;;;;;;;;5099381;28;20245;-64
2021/08/01 04:45:15;;;;;;;6.53;3.13;;;;;;;;;;5099283;28;20638;-64
2021/08/01 04:47:43;;;;;;;3.53;2.53;;;;;;;;;;5099408;28;20205;-64
2021/08/01 04:50:11;;;;;;;8.20;2.77;;;;;;;;;;5099017;28;20210;-64
2021/08/01 04:52:40;;;;;;;4.50;3.53;;;;;;;;;;5098954;28;20310;-64
2021/08/01 04:55:08;;;;;;;5.70;3.23;;;;;;;;;;5098891;28;20231;-64
2021/08/01 04:57:36;;;;;;;5.37;3.03;;;;;;;;;;5099213;28;20210;-64
2021/08/01 05:00:05;;;;;;;4.80;2.70;;;;;;;;;;5099105;28;20213;-64
2021/08/01 05:02:35;;;;;;;3.60;2.53;;;;;;;;;;5098638;28;20229;-64
2021/08/01 05:05:03;;;;;;;4.17;2.80;;;;;;;;;;5098974;28;20216;-62
2021/08/01 05:07:31;;;;;;;4.40;3.00;;;;;;;;;;5099108;28;20206;-62
2021/08/01 05:09:59;;;;;;;2.87;2.63;;;;;;;;;;5098814;28;20220;-62
2021/08/01 05:12:27;;;;;;;3.10;2.80;;;;;;;;;;5098876;28;20228;-62
2021/08/01 05:14:55;;;;;;;8.00;2.40;;;;;;;;;;5098890;28;20240;-62
2021/08/01 05:17:23;;;;;;;3.20;2.73;;;;;;;;;;5099087;28;20205;-63
2021/08/01 05:19:53;;;;;;;5.70;2.60;;;;;;;;;;5098911;28;20211;-62
2021/08/01 05:22:21;;;;;;;4.93;2.67;;;;;;;;;;5098787;28;20226;-62
2021/08/01 05:24:49;;;;;;;3.67;2.57;;;;;;;;;;5098351;28;20209;-62
2021/08/01 05:27:17;;;;;;;6.30;2.33;;;;;;;;;;5099006;28;20212;-62
2021/08/01 05:29:45;;;;;;;2.37;2.10;;;;;;;;;;5099022;28;20227;-62
2021/08/01 05:32:13;;;;;;;5.17;2.10;;;;;;;;;;5099011;28;20312;-62
2021/08/01 05:34:41;;;;;;;5.10;2.47;;;;;;;;;;5099245;28;20225;-63
2021/08/01 05:37:10;;;;;;;8.63;2.30;;;;;;;;;;5099031;28;20213;-63
2021/08/01 05:39:38;;;;;;;5.00;2.13;;;;;;;;;;5098629;28;20259;-62
2021/08/01 05:42:06;;;;;;;2.30;2.10;;;;;;;;;;5098622;28;20631;-62
2021/08/01 05:44:34;;;;;;;2.40;2.10;;;;;;;;;;5098954;28;20208;-62
2021/08/01 05:47:06;;;;;;;5.00;2.57;;;;;;;;;;5098630;28;20364;-62
2021/08/01 05:49:35;;;;;;;2.80;2.00;;;;;;;;;;5098571;28;20559;-63
2021/08/01 05:52:03;;;;;;;2.90;2.13;;;;;;;;;;5098422;28;20231;-63
2021/08/01 05:54:32;;;;;;;3.60;2.33;;;;;;;;;;5097732;28;20661;-63
2021/08/01 05:57:00;;;;;;;3.00;2.10;;;;;;;;;;5097801;28;20219;-62
2021/08/01 05:59:28;;;;;;;4.33;2.47;;;;;;;;;;5084966;28;20205;-63
2021/08/01 06:01:56;;;;;;;2.93;2.37;;;;;;;;;;5093552;28;20228;-63
2021/08/01 06:04:24;;;;;;;8.87;2.60;;;;;;;;;;5098137;28;20201;-62
2021/08/01 06:06:52;;;;;;;7.43;2.43;;;;;;;;;;5093044;28;20194;-63
2021/08/01 06:09:20;;;;;;;4.60;2.70;;;;;;;;;;5096814;28;20584;-63
2021/08/01 06:11:49;;;;;;;3.00;1.87;;;;;;;;;;5097250;28;20217;-63
2021/08/01 06:14:17;;;;;;;2.83;2.17;;;;;;;;;;5097579;28;20225;-63
2021/08/01 06:16:45;;;;;;;4.80;2.30;;;;;;;;;;5099180;28;20258;-63
2021/08/01 06:19:13;;;;;;;3.73;2.27;;;;;;;;;;5098549;28;20205;-63
2021/08/01 06:21:41;;;;;;;2.57;1.87;;;;;;;;;;5098035;28;20310;-64
2021/08/01 06:24:09;;;;;;;3.60;2.10;;;;;;;;;;5102719;28;20200;-64
2021/08/01 06:26:39;;;;;;;3.57;2.17;;;;;;;;;;5104610;28;20285;-64
2021/08/01 06:29:08;;;;;;;3.37;2.40;;;;;;;;;;5104558;28;20284;-63
2021/08/01 06:31:36;;;;;;;3.47;2.07;;;;;;;;;;5103560;28;20219;-64
2021/08/01 06:34:04;;;;;;;3.53;2.13;;;;;;;;;;5108222;28;20591;-64
2021/08/01 06:36:32;;;;;;;3.77;2.00;;;;;;;;;;5097632;28;20202;-64
2021/08/01 06:39:00;;;;;;;2.57;1.97;;;;;;;;;;5097391;28;20216;-64
2021/08/01 06:41:28;;;;;;;5.07;2.90;;;;;;;;;;5097088;28;20874;-64
2021/08/01 06:43:56;;;;;;;3.00;2.07;;;;;;;;;;5097617;28;20206;-64
2021/08/01 06:46:25;;;;;;;2.53;2.33;;;;;;;;;;5096637;28;20216;-63
2021/08/01 06:48:53;;;;;;;3.90;2.57;;;;;;;;;;5096784;28;20209;-64
2021/08/01 06:51:21;;;;;;;2.40;1.90;;;;;;;;;;5083557;28;20229;-64
2021/08/01 06:53:49;;;;;;;2.10;2.00;;;;;;;;;;5095696;28;20247;-64
2021/08/01 06:56:17;;;;;;;2.90;2.30;;;;;;;;;;5096276;28;20215;-64
2021/08/01 06:58:45;;;;;;;5.13;2.17;;;;;;;;;;5096556;28;20207;-63
2021/08/01 07:01:13;;;;;;;3.17;2.20;;;;;;;;;;5096585;28;20255;-63
2021/08/01 07:03:43;;;;;;;2.50;2.30;;;;;;;;;;5096512;28;20247;-64
2021/08/01 07:06:12;;;;;;;4.90;2.27;;;;;;;;;;5097287;28;20288;-63
2021/08/01 07:08:40;;;;;;;2.60;1.93;;;;;;;;;;5096944;28;20206;-63
2021/08/01 07:11:08;;;;;;;4.63;1.90;;;;;;;;;;5097101;28;20210;-63
2021/08/01 07:13:36;;;;;;;2.53;2.00;;;;;;;;;;5097122;28;20233;-63
2021/08/01 07:16:05;;;;;;;1.87;1.77;;;;;;;;;;5097297;28;20209;-64
2021/08/01 07:18:33;;;;;;;2.60;1.87;;;;;;;;;;5100976;28;20256;-64
2021/08/01 07:21:02;;;;;;;2.20;2.00;;;;;;;;;;5106111;28;20260;-63
2021/08/01 07:23:30;;;;;;;3.27;1.90;;;;;;;;;;5105975;28;20212;-63
2021/08/01 07:25:58;;;;;;;4.13;1.80;;;;;;;;;;5096465;28;20202;-63
2021/08/01 07:28:26;;;;;;;3.37;2.00;;;;;;;;;;5100922;28;20205;-64
2021/08/01 07:30:54;;;;;;;4.10;2.17;;;;;;;;;;5100726;28;20197;-64
2021/08/01 07:33:24;;;;;;;2.60;2.17;;;;;;;;;;5100367;28;20226;-64
2021/08/01 07:35:52;;;;;;;4.17;2.77;;;;;;;;;;5100780;28;20217;-64
2021/08/01 07:38:22;;;;;;;5.53;2.40;;;;;;;;;;5099799;28;20676;-64
2021/08/01 07:40:50;;;;;;;2.93;2.63;;;;;;;;;;5088139;28;20213;-65
2021/08/01 07:43:18;;;;;;;156.50;93.50;;;;;;;;;;5085060;28;20279;-64
2021/08/01 07:45:46;;;;;;;9.47;6.77;;;;;;;;;;5080065;28;20194;-64
2021/08/01 07:48:13;;;;;;;4.87;2.83;;;;;;;;;;5080222;28;20212;-65
2021/08/01 07:50:41;;;;;;;4.20;2.27;;;;;;;;;;5094933;28;20212;-65
2021/08/01 07:53:09;;;;;;;2.87;2.17;;;;;;;;;;5099594;28;20235;-64
2021/08/01 07:55:39;;;;;;;4.83;2.07;;;;;;;;;;5102395;28;20214;-64
2021/08/01 07:58:07;;;;;;;2.60;2.00;;;;;;;;;;5108282;28;20287;-64
2021/08/01 08:00:35;;;;;;;3.03;1.83;;;;;;;;;;5105271;28;20202;-64
2021/08/01 08:03:03;;;;;;;2.07;1.90;;;;;;;;;;5102959;28;20228;-64
2021/08/01 08:05:31;;;;;;;3.30;2.17;;;;;;;;;;5109093;28;20194;-64
2021/08/01 08:07:59;;;;;;;3.20;2.23;;;;;;;;;;5110509;28;20214;-64
2021/08/01 08:10:27;;;;;;;3.30;2.20;;;;;;;;;;5108076;28;20198;-64
2021/08/01 08:12:57;;;;;;;3.53;2.30;;;;;;;;;;5105569;28;20274;-64
2021/08/01 08:15:25;;;;;;;4.97;2.30;;;;;;;;;;5106622;28;20228;-64
2021/08/01 08:17:53;;;;;;;5.77;2.17;;;;;;;;;;5105582;28;20198;-66
2021/08/01 08:20:21;;;;;;;2.80;1.87;;;;;;;;;;5099871;28;20210;-61
2021/08/01 08:22:49;;;;;;;3.30;2.70;;;;;;;;;;5099543;28;20235;-62
2021/08/01 08:25:16;;;;;;;3.03;1.90;;;;;;;;;;5100149;28;20269;-62
2021/08/01 08:27:44;;;;;;;3.97;1.90;;;;;;;;;;5100125;28;20202;-62
2021/08/01 08:30:14;;;;;;;4.03;2.30;;;;;;;;;;5098532;28;20205;-62
2021/08/01 08:32:42;;;;;;;2.20;2.00;;;;;;;;;;5097910;28;20225;-62
2021/08/01 08:35:10;;;;;;;2.30;2.10;;;;;;;;;;5097761;28;20229;-62
2021/08/01 08:37:45;;;;;;;5.17;2.30;;;;;;;;;;5097308;28;20209;-62
2021/08/01 08:40:14;;;;;;;4.23;2.67;;;;;;;;;;5098536;28;20215;-62
2021/08/01 08:42:42;;;;;;;3.37;1.97;;;;;;;;;;5098307;28;20239;-62
2021/08/01 08:45:13;;;;;;;3.43;2.00;;;;;;;;;;5098770;28;20201;-62
2021/08/01 08:47:43;;;;;;;4.37;2.03;;;;;;;;;;5099082;28;20308;-62
2021/08/01 08:50:12;;;;;;;4.00;1.70;;;;;;;;;;5099188;28;20199;-62
2021/08/01 08:52:42;;;;;;;2.47;1.50;;;;;;;;;;5118864;28;20225;-62
2021/08/01 08:55:10;;;;;;;3.10;1.70;;;;;;;;;;5116219;28;20225;-63
2021/08/01 08:57:39;;;;;;;7.93;1.97;;;;;;;;;;5099291;28;20212;-65
2021/08/01 09:00:08;;;;;;;1.77;1.67;;;;;;;;;;5099409;28;20212;-64
2021/08/01 09:02:36;;;;;;;2.23;2.03;;;;;;;;;;5099131;28;20304;-64
2021/08/01 09:05:07;;;;;;;2.60;2.40;;;;;;;;;;5099362;28;20244;-64
2021/08/01 09:07:35;;;;;;;4.00;2.47;;;;;;;;;;5098970;28;20322;-64
2021/08/01 09:10:04;;;;;;;4.00;2.50;;;;;;;;;;5099017;28;20216;-65
2021/08/01 09:12:40;;;;;;;2.60;2.40;;;;;;;;;;5098905;28;20229;-63
2021/08/01 09:15:13;;;;;;;1.97;1.70;;;;;;;;;;5098968;28;20232;-64
2021/08/01 09:17:41;;;;;;;5.20;2.17;;;;;;;;;;5098766;28;20213;-65
2021/08/01 09:20:21;;;;;;;4.20;2.20;;;;;;;;;;5098612;28;20572;-65
2021/08/01 09:23:08;;;;;;;5.83;3.10;;;;;;;;;;5107473;28;20226;-65
2021/08/01 09:25:36;;;;;;;4.97;2.13;;;;;;;;;;5107201;28;20197;-65
2021/08/01 09:28:08;;;;;;;2.80;2.60;;;;;;;;;;5099933;28;20204;-65
2021/08/01 09:30:47;;;;;;;2.57;2.00;;;;;;;;;;5098532;28;20206;-65
2021/08/01 09:33:17;;;;;;;5.33;2.20;;;;;;;;;;5095181;28;20256;-65
2021/08/01 09:35:47;;;;;;;5.43;3.20;;;;;;;;;;5092307;28;20260;-67
2021/08/01 09:38:16;;;;;;;2.97;2.10;;;;;;;;;;5103980;28;20193;-65
2021/08/01 09:40:44;;;;;;;4.80;2.00;;;;;;;;;;5106867;28;20197;-65
2021/08/01 09:43:14;;;;;;;3.87;1.77;;;;;;;;;;5106712;28;20228;-66
2021/08/01 09:45:42;;;;;;;2.57;1.90;;;;;;;;;;5107254;28;20189;-66
2021/08/01 09:48:20;;;;;;;2.37;1.73;;;;;;;;;;5107047;28;20198;-66
2021/08/01 09:50:58;;;;;;;2.03;1.73;;;;;;;;;;5103239;28;20214;-65
2021/08/01 09:53:27;;;;;;;3.60;1.80;;;;;;;;;;5106962;28;20714;-66
2021/08/01 09:56:14;;;;;;;2.70;1.93;;;;;;;;;;5106574;28;20308;-66
2021/08/01 09:58:42;;;;;;;3.17;1.90;;;;;;;;;;5097089;28;20214;-65
2021/08/01 10:01:10;;;;;;;5.37;1.90;;;;;;;;;;5097636;28;20235;-66
2021/08/01 10:03:39;;;;;;;1.60;1.50;;;;;;;;;;5097719;28;20213;-66
2021/08/01 10:06:09;;;;;;;4.00;1.60;;;;;;;;;;5098016;28;20212;-66
2021/08/01 10:08:38;;;;;;;1.90;1.70;;;;;;;;;;5099999;28;20232;-65
2021/08/01 10:11:10;;;;;;;3.37;1.73;;;;;;;;;;5101652;28;20237;-66
2021/08/01 10:13:39;;;;;;;2.40;1.70;;;;;;;;;;5106258;28;20292;-66
2021/08/01 10:16:08;;;;;;;2.00;1.80;;;;;;;;;;5103271;28;20234;-66
2021/08/01 10:18:36;;;;;;;1.73;1.63;;;;;;;;;;5103402;28;20209;-67
2021/08/01 10:21:04;;;;;;;2.03;1.80;;;;;;;;;;5098076;28;20206;-66
2021/08/01 10:23:36;;;;;;;2.37;1.60;;;;;;;;;;5097641;28;20213;-66
2021/08/01 10:26:05;;;;;;;2.57;1.70;;;;;;;;;;5098113;28;20288;-67
2021/08/01 10:28:34;;;;;;;1.60;1.50;;;;;;;;;;5100411;28;20205;-66
2021/08/01 10:31:03;;;;;;;1.70;1.50;;;;;;;;;;5100168;28;20210;-65
2021/08/01 10:33:35;;;;;;;1.70;1.60;;;;;;;;;;5107588;28;20201;-66
2021/08/01 10:36:04;;;;;;;2.57;1.70;;;;;;;;;;5097909;28;20231;-64
2021/08/01 10:38:34;;;;;;;3.37;2.00;;;;;;;;;;5097432;28;20213;-64
2021/08/01 10:41:05;;;;;;;1.67;1.57;;;;;;;;;;5097597;28;20205;-64
2021/08/01 10:43:35;;;;;;;3.97;1.80;;;;;;;;;;5097699;28;20208;-64
2021/08/01 10:46:04;;;;;;;3.07;1.67;;;;;;;;;;5097308;28;20205;-64
2021/08/01 10:48:32;;;;;;;2.60;1.73;;;;;;;;;;5097524;28;20224;-64
2021/08/01 10:51:01;;;;;;;1.70;1.60;;;;;;;;;;5108566;28;20197;-63
2021/08/01 10:53:30;;;;;;;2.70;1.37;;;;;;;;;;5117543;28;20209;-64
2021/08/01 10:56:16;;;;;;;5.53;1.63;;;;;;;;;;5117881;28;20238;-64
2021/08/01 10:58:45;;;;;;;1.57;1.47;;;;;;;;;;5117777;28;20208;-64
2021/08/01 11:01:13;;;;;;;1.30;1.30;;;;;;;;;;5122278;28;20208;-64
2021/08/01 11:03:41;;;;;;;2.50;2.07;;;;;;;;;;5124807;28;20227;-64
2021/08/01 11:06:24;;;;;;;1.57;1.17;;;;;;;;;;5124668;28;20201;-65
2021/08/01 11:09:08;;;;;;;2.23;2.03;;;;;;;;;;5113508;28;20205;-65
2021/08/01 11:11:36;;;;;;;3.10;1.80;;;;;;;;;;5108477;28;20223;-63
2021/08/01 11:14:06;;;;;;;5.20;2.27;;;;;;;;;;5114662;28;20203;-65
2021/08/01 11:16:51;;;;;;;2.83;1.90;;;;;;;;;;5104152;28;20229;-63
2021/08/01 11:19:40;;;;;;;1.60;1.30;;;;;;;;;;5104196;28;20212;-62
2021/08/01 11:22:08;;;;;;;1.67;1.30;;;;;;;;;;5102242;28;20233;-64
2021/08/01 11:24:36;;;;;;;2.27;1.50;;;;;;;;;;5103920;28;20202;-64
2021/08/01 11:27:08;;;;;;;1.90;1.53;;;;;;;;;;5104423;28;20214;-64
2021/08/01 11:29:54;;;;;;;1.50;1.40;;;;;;;;;;5106885;28;20203;-64
2021/08/01 11:32:24;;;;;;;4.20;1.80;;;;;;;;;;5110407;28;20731;-64
2021/08/01 11:35:06;;;;;;;2.37;1.93;;;;;;;;;;5110222;27;20267;-64
2021/08/01 11:37:35;;;;;;;3.33;1.90;;;;;;;;;;5104204;27;20669;-63
2021/08/01 11:40:04;;;;;;;1.80;1.60;;;;;;;;;;5104012;28;20207;-65
2021/08/01 11:42:32;;;;;;;2.30;2.10;;;;;;;;;;5103857;28;20243;-63
2021/08/01 11:45:01;;;;;;;1.80;1.70;;;;;;;;;;5103234;28;20578;-65
2021/08/01 11:47:41;;;;;;;1.57;1.33;;;;;;;;;;5103686;28;20215;-65
2021/08/01 11:50:11;;;;;;;1.87;1.50;;;;;;;;;;5103792;28;20291;-65
2021/08/01 11:52:43;;;;;;;7.13;2.20;;;;;;;;;;5103537;28;20233;-65
2021/08/01 11:55:15;;;;;;;3.07;1.47;;;;;;;;;;5103789;28;20263;-63
2021/08/01 11:57:45;;;;;;;6.10;1.67;;;;;;;;;;5103844;28;20222;-63
2021/08/01 12:00:13;;;;;;;1.50;1.40;;;;;;;;;;5103951;28;20664;-63
2021/08/01 12:02:50;;;;;;;3.33;1.50;;;;;;;;;;5103635;28;20221;-63
2021/08/01 12:05:18;;;;;;;1.80;1.70;;;;;;;;;;5103747;28;20579;-62
2021/08/01 12:07:48;;;;;;;2.73;1.90;;;;;;;;;;5103790;28;20351;-62
2021/08/01 12:10:17;;;;;;;4.20;1.70;;;;;;;;;;5103515;28;20242;-64
2021/08/01 12:12:45;;;;;;;2.47;1.93;;;;;;;;;;5099990;28;20228;-64
2021/08/01 12:15:13;;;;;;;2.63;1.63;;;;;;;;;;5100689;28;20293;-64
2021/08/01 12:17:41;;;;;;;3.27;1.97;;;;;;;;;;5100358;28;20233;-63
2021/08/01 12:20:11;;;;;;;3.03;1.67;;;;;;;;;;5096864;28;20578;-63
2021/08/01 12:22:39;;;;;;;4.50;1.67;;;;;;;;;;5099953;28;20773;-63
2021/08/01 12:25:08;;;;;;;2.30;1.60;;;;;;;;;;5100111;28;20203;-64
2021/08/01 12:27:37;;;;;;;2.53;1.43;;;;;;;;;;5100144;28;20571;-64
2021/08/01 12:30:13;;;;;;;1.70;1.50;;;;;;;;;;5100092;28;20256;-64
2021/08/01 12:32:42;;;;;;;3.93;1.43;;;;;;;;;;5099894;28;20232;-63
2021/08/01 12:35:13;;;;;;;2.03;1.60;;;;;;;;;;5099880;28;20208;-63
2021/08/01 12:37:45;;;;;;;1.90;1.70;;;;;;;;;;5099923;28;20231;-64
2021/08/01 12:40:15;;;;;;;3.57;1.40;;;;;;;;;;5100233;28;20201;-63
2021/08/01 12:42:49;;;;;;;2.40;1.70;;;;;;;;;;5099907;28;20329;-64
2021/08/01 12:45:17;;;;;;;1.87;1.40;;;;;;;;;;5100317;28;20214;-64
2021/08/01 12:47:46;;;;;;;3.93;1.50;;;;;;;;;;5099864;28;20211;-64
2021/08/01 12:50:16;;;;;;;3.37;1.43;;;;;;;;;;5100132;28;20291;-64
2021/08/01 12:52:44;;;;;;;1.73;1.63;;;;;;;;;;5099505;28;20245;-63
2021/08/01 12:55:13;;;;;;;3.10;1.43;;;;;;;;;;5100086;28;20211;-63
2021/08/01 12:58:00;;;;;;;1.57;1.30;;;;;;;;;;5099573;28;20589;-64
2021/08/01 13:00:30;;;;;;;1.57;1.40;;;;;;;;;;5099892;28;20661;-63
2021/08/01 13:02:59;;;;;;;1.20;1.10;;;;;;;;;;5099750;28;20221;-64
2021/08/01 13:05:29;;;;;;;2.20;1.23;;;;;;;;;;5099757;28;20303;-64
2021/08/01 13:07:58;;;;;;;2.30;1.70;;;;;;;;;;5099582;28;20207;-64
2021/08/01 13:10:27;;;;;;;2.10;1.37;;;;;;;;;;5099554;28;20213;-64
2021/08/01 13:13:12;;;;;;;2.10;1.37;;;;;;;;;;5099580;28;20228;-64
2021/08/01 13:15:42;;;;;;;2.83;1.27;;;;;;;;;;5099892;28;20252;-64
2021/08/01 13:18:22;;;;;;;1.30;1.30;;;;;;;;;;5100121;28;20236;-64
2021/08/01 13:20:52;;;;;;;1.90;1.60;;;;;;;;;;5098946;28;20622;-64
2021/08/01 13:23:36;;;;;;;2.70;1.87;;;;;;;;;;5097805;28;20225;-63
2021/08/01 13:26:21;;;;;;;2.50;1.53;;;;;;;;;;5098052;28;20214;-63
2021/08/01 13:28:50;;;;;;;4.00;1.47;;;;;;;;;;5098381;28;20554;-63
2021/08/01 13:31:19;;;;;;;2.60;2.10;;;;;;;;;;5097664;28;20198;-64
2021/08/01 13:33:56;;;;;;;1.77;1.63;;;;;;;;;;5097007;28;20200;-64
2021/08/01 13:36:41;;;;;;;1.70;1.60;;;;;;;;;;5097774;28;20201;-64
2021/08/01 13:39:10;;;;;;;3.13;1.90;;;;;;;;;;5097534;28;20231;-63
2021/08/01 13:41:38;;;;;;;4.60;1.50;;;;;;;;;;5101008;28;20595;-63
2021/08/01 13:44:10;;;;;;;1.90;1.60;;;;;;;;;;5097696;28;20198;-64
2021/08/01 13:46:38;;;;;;;1.63;1.53;;;;;;;;;;5095299;28;20195;-63
2021/08/01 13:49:06;;;;;;;4.77;1.60;;;;;;;;;;5099047;28;20196;-63
2021/08/01 13:51:36;;;;;;;3.33;1.60;;;;;;;;;;5094684;28;20247;-63
2021/08/01 13:54:04;;;;;;;2.73;1.77;;;;;;;;;;5099836;28;20202;-63
2021/08/01 13:56:33;;;;;;;2.20;1.80;;;;;;;;;;5098247;28;20210;-63
2021/08/01 13:59:00;;;;;;;4.57;1.43;;;;;;;;;;5100689;28;20239;-63
2021/08/01 14:01:28;;;;;;;2.10;1.60;;;;;;;;;;5118380;28;20592;-63
2021/08/01 14:03:57;;;;;;;4.53;1.50;;;;;;;;;;5118808;28;20226;-64
2021/08/01 14:06:25;;;;;;;1.80;1.60;;;;;;;;;;5118075;28;20203;-63
2021/08/01 14:08:55;;;;;;;1.67;1.57;;;;;;;;;;5117809;28;20288;-63
2021/08/01 14:11:23;;;;;;;1.43;1.33;;;;;;;;;;5117771;28;20320;-63
2021/08/01 14:13:51;;;;;;;2.37;1.10;;;;;;;;;;5097763;28;20219;-63
2021/08/01 14:16:19;;;;;;;2.73;1.50;;;;;;;;;;5097361;28;20205;-63
2021/08/01 14:18:47;;;;;;;1.70;1.60;;;;;;;;;;5096836;28;20472;-63
2021/08/01 14:21:15;;;;;;;1.47;1.37;;;;;;;;;;5097336;28;20213;-63
2021/08/01 14:23:43;;;;;;;1.67;1.23;;;;;;;;;;5097247;28;20205;-63
2021/08/01 14:26:12;;;;;;;1.57;1.47;;;;;;;;;;5097903;28;20213;-64
2021/08/01 14:28:40;;;;;;;1.17;1.00;;;;;;;;;;5097495;28;20680;-63
2021/08/01 14:31:08;;;;;;;1.50;1.40;;;;;;;;;;5097968;28;20205;-64
2021/08/01 14:33:38;;;;;;;1.63;1.53;;;;;;;;;;5097793;28;20571;-63
2021/08/01 14:36:06;;;;;;;1.97;1.20;;;;;;;;;;5097361;28;20245;-63
2021/08/01 14:38:34;;;;;;;1.10;1.10;;;;;;;;;;5095570;28;20311;-66
2021/08/01 14:41:02;;;;;;;2.07;1.83;;;;;;;;;;5096602;28;20197;-67
2021/08/01 14:43:32;;;;;;;1.60;1.40;;;;;;;;;;5099361;28;20691;-68
2021/08/01 14:46:02;;;;;;;1.87;1.07;;;;;;;;;;5096848;28;20225;-67
2021/08/01 14:48:31;;;;;;;1.00;1.00;;;;;;;;;;5097099;28;20202;-65
2021/08/01 14:51:01;;;;;;;1.23;1.23;;;;;;;;;;5096294;28;20565;-66
2021/08/01 14:53:27;;;;;;;1.80;1.70;;;;;;;;;;5096390;28;20202;-65
2021/08/01 14:55:58;;;;;;;2.03;1.27;;;;;;;;;;5096888;28;20203;-65
2021/08/01 14:58:29;;;;;;;2.63;1.87;;;;;;;;;;5096587;28;20280;-65
2021/08/01 15:01:01;;;;;;;1.40;1.30;;;;;;;;;;5096826;28;20547;-65